Time;durP1;ratioP1;P1;durP2;ratioP2;P2;SDS_P1;SDS_P2;PMS_P1;PMS_P2;Temp;Humidity;BMP_temperature;BMP_pressure;BME280_temperature;BME280_humidity;BME280_pressure;Samples;Min_cycle;Max_cycle;Signal;HPM_P1;HPM_P2
2023/03/24 00:01:14;;;;;;;13.02;6.53;;;9.20;72.90;;;;;;4985682;28;20065;-60
2023/03/24 00:03:39;;;;;;;11.00;7.28;;;9.30;75.60;;;;;;4974836;28;20027;-60
2023/03/24 00:06:06;;;;;;;18.52;7.05;;;9.30;74.30;;;;;;4984864;28;20363;-60
2023/03/24 00:08:35;;;;;;;11.00;6.60;;;9.30;74.30;;;;;;4975177;28;20035;-60
2023/03/24 00:11:03;;;;;;;9.18;6.75;;;9.30;74.70;;;;;;4980378;28;20124;-60
2023/03/24 00:13:30;;;;;;;16.40;7.70;;;9.20;73.20;;;;;;4988670;28;20102;-59
2023/03/24 00:15:57;;;;;;;13.25;8.32;;;9.20;74.50;;;;;;4978910;28;20073;-59
2023/03/24 00:18:24;;;;;;;11.85;7.45;;;9.20;78.60;;;;;;4978548;28;20022;-59
2023/03/24 00:20:57;;;;;;;11.43;7.93;;;9.30;77.30;;;;;;4993408;28;20018;-59
2023/03/24 00:23:25;;;;;;;22.07;7.70;;;9.30;77.90;;;;;;4985089;28;20027;-60
2023/03/24 00:26:05;;;;;;;13.50;7.80;;;9.30;76.50;;;;;;4982790;28;20063;-60
2023/03/24 00:28:33;;;;;;;16.92;7.97;;;9.30;78.80;;;;;;4989066;28;20046;-60
2023/03/24 00:31:00;;;;;;;12.95;7.20;;;9.30;79.00;;;;;;4991893;28;20081;-59
2023/03/24 00:33:30;;;;;;;13.60;8.50;;;9.30;77.60;;;;;;4977359;28;20027;-60
2023/03/24 00:35:56;;;;;;;14.65;7.38;;;9.20;76.10;;;;;;4981821;28;20019;-60
2023/03/24 00:38:24;;;;;;;19.15;9.25;;;9.20;76.90;;;;;;4977430;28;20026;-59
2023/03/24 00:40:50;;;;;;;15.13;8.25;;;9.20;79.60;;;;;;4991872;28;20029;-60
2023/03/24 00:43:16;;;;;;;17.02;8.18;;;9.10;81.00;;;;;;4979564;28;20023;-60
2023/03/24 00:45:45;;;;;;;12.55;7.57;;;9.10;81.90;;;;;;4976871;28;20067;-60
2023/03/24 00:48:16;;;;;;;12.48;7.57;;;9.10;82.10;;;;;;4991929;28;20106;-60
2023/03/24 00:50:47;;;;;;;14.25;7.75;;;9.20;80.20;;;;;;4977978;28;20023;-59
2023/03/24 00:53:17;;;;;;;32.60;9.15;;;9.20;79.20;;;;;;4983072;28;20089;-60
2023/03/24 00:55:44;;;;;;;12.88;7.32;;;9.20;79.60;;;;;;4989638;28;20034;-59
2023/03/24 00:58:16;;;;;;;13.23;8.93;;;9.20;80.20;;;;;;4983279;28;20098;-60
2023/03/24 01:00:44;;;;;;;10.55;7.65;;;9.10;80.30;;;;;;4983452;28;20027;-60
2023/03/24 01:03:10;;;;;;;13.07;7.47;;;9.20;80.70;;;;;;4988839;28;20026;-60
2023/03/24 01:05:36;;;;;;;11.98;7.57;;;9.20;82.50;;;;;;4985465;28;20031;-60
2023/03/24 01:08:03;;;;;;;9.45;7.60;;;9.20;80.10;;;;;;4979673;28;20121;-60
2023/03/24 01:10:31;;;;;;;12.77;8.90;;;9.20;81.00;;;;;;4977628;28;20088;-60
2023/03/24 01:12:59;;;;;;;13.80;8.05;;;9.20;82.00;;;;;;4984335;28;20031;-59
2023/03/24 01:15:32;;;;;;;15.27;8.13;;;9.20;81.40;;;;;;4975099;28;20026;-60
2023/03/24 01:18:01;;;;;;;12.60;7.73;;;9.20;81.20;;;;;;4982009;28;20026;-60
2023/03/24 01:20:31;;;;;;;11.60;7.47;;;9.20;80.60;;;;;;4980305;28;20117;-60
2023/03/24 01:22:58;;;;;;;9.02;7.97;;;9.20;82.30;;;;;;4984448;28;20030;-60
2023/03/24 01:25:24;;;;;;;13.05;7.45;;;9.20;79.30;;;;;;4988686;28;20374;-59
2023/03/24 01:27:51;;;;;;;12.15;7.63;;;9.20;80.70;;;;;;4985548;28;20045;-59
2023/03/24 01:30:23;;;;;;;12.18;7.85;;;9.20;81.50;;;;;;4983829;28;20041;-59
2023/03/24 01:32:49;;;;;;;13.00;7.35;;;9.10;81.10;;;;;;4981371;28;20030;-60
2023/03/24 01:35:16;;;;;;;13.52;8.07;;;9.10;82.50;;;;;;4983423;28;20019;-60
2023/03/24 01:37:42;;;;;;;16.63;8.98;;;9.10;83.90;;;;;;4977179;28;20027;-60
2023/03/24 01:40:14;;;;;;;12.18;7.90;;;9.10;81.80;;;;;;4973769;28;20027;-59
2023/03/24 01:42:40;;;;;;;11.00;7.95;;;9.10;82.20;;;;;;4978169;28;20586;-60
2023/03/24 01:45:43;;;;;;;16.73;7.70;;;9.10;83.40;;;;;;4981769;28;20026;-59
2023/03/24 01:48:12;;;;;;;13.40;7.93;;;9.00;84.50;;;;;;4982592;28;20023;-59
2023/03/24 01:50:39;;;;;;;9.65;7.10;;;9.10;85.30;;;;;;4975937;28;20417;-59
2023/03/24 01:53:06;;;;;;;11.50;8.30;;;9.10;83.60;;;;;;4972849;28;20121;-60
2023/03/24 01:55:32;;;;;;;8.50;7.10;;;9.10;84.00;;;;;;4973358;28;20027;-59
2023/03/24 01:58:01;;;;;;;13.18;8.45;;;9.10;85.10;;;;;;4979486;28;20022;-60
2023/03/24 02:00:27;;;;;;;16.10;8.50;;;9.10;83.30;;;;;;4987754;28;20026;-59
2023/03/24 02:03:02;;;;;;;14.07;9.63;;;9.10;84.00;;;;;;4986721;28;20108;-59
2023/03/24 02:05:31;;;;;;;16.45;7.82;;;9.10;80.50;;;;;;4978553;28;20033;-60
2023/03/24 02:08:15;;;;;;;8.60;7.40;;;9.00;81.40;;;;;;4981467;28;20026;-60
2023/03/24 02:10:43;;;;;;;13.60;7.68;;;9.00;83.50;;;;;;4979609;28;20104;-59
2023/03/24 02:13:09;;;;;;;11.02;8.15;;;9.00;83.50;;;;;;4979733;28;20130;-59
2023/03/24 02:15:43;;;;;;;12.73;7.97;;;9.00;83.60;;;;;;4981378;28;20021;-60
2023/03/24 02:18:32;;;;;;;11.98;8.40;;;9.00;84.20;;;;;;4977695;28;20026;-60
2023/03/24 02:21:17;;;;;;;10.20;7.38;;;9.00;81.80;;;;;;4981622;28;20042;-59
2023/03/24 02:23:57;;;;;;;8.98;7.32;;;9.10;82.50;;;;;;4993092;28;20033;-59
2023/03/24 02:26:38;;;;;;;12.07;7.28;;;9.00;82.40;;;;;;4985489;28;20030;-59
2023/03/24 02:29:35;;;;;;;10.52;7.22;;;9.00;83.50;;;;;;4984871;28;20104;-60
2023/03/24 02:32:09;;;;;;;10.85;7.63;;;9.00;85.10;;;;;;4983908;28;20026;-60
2023/03/24 02:34:55;;;;;;;12.52;7.45;;;8.90;82.50;;;;;;4987215;28;20019;-59
2023/03/24 02:37:41;;;;;;;11.55;7.72;;;8.90;82.40;;;;;;4993205;28;20057;-59
2023/03/24 02:40:15;;;;;;;10.38;7.18;;;8.80;79.50;;;;;;4993061;28;20032;-59
2023/03/24 02:43:03;;;;;;;12.52;9.60;;;8.80;83.50;;;;;;4985714;28;20356;-59
2023/03/24 02:45:35;;;;;;;8.65;7.28;;;8.70;81.60;;;;;;4984826;28;20034;-59
2023/03/24 02:48:10;;;;;;;15.25;7.80;;;8.70;81.40;;;;;;4982731;28;20019;-60
2023/03/24 02:50:50;;;;;;;13.52;7.07;;;8.60;78.50;;;;;;4988615;28;20401;-60
2023/03/24 02:53:42;;;;;;;9.20;6.13;;;8.50;79.60;;;;;;4983466;28;20034;-60
2023/03/24 02:56:15;;;;;;;8.85;7.68;;;8.40;82.40;;;;;;4986746;28;20073;-59
2023/03/24 02:59:30;;;;;;;8.50;6.72;;;8.40;82.90;;;;;;4987181;28;20023;-60
2023/03/24 03:02:01;;;;;;;11.05;6.68;;;8.30;83.50;;;;;;4973335;28;20518;-59
2023/03/24 03:04:36;;;;;;;10.02;7.35;;;8.20;82.30;;;;;;4989722;28;20022;-59
2023/03/24 03:07:08;;;;;;;7.53;6.18;;;8.20;82.90;;;;;;4985647;28;20023;-58
2023/03/24 03:09:36;;;;;;;11.50;6.63;;;8.10;83.40;;;;;;4981773;28;20026;-59
2023/03/24 03:12:05;;;;;;;9.32;6.47;;;8.10;83.50;;;;;;4980537;28;20072;-60
2023/03/24 03:14:50;;;;;;;12.38;7.07;;;8.00;85.70;;;;;;4993126;28;20026;-60
2023/03/24 03:17:21;;;;;;;11.90;6.53;;;8.00;87.00;;;;;;4986999;28;20030;-60
2023/03/24 03:19:54;;;;;;;7.78;6.68;;;8.10;89.90;;;;;;4977324;28;20031;-58
2023/03/24 03:22:31;;;;;;;9.30;6.50;;;8.10;87.70;;;;;;4990172;28;20022;-60
2023/03/24 03:25:01;;;;;;;8.82;7.22;;;8.10;86.40;;;;;;4988225;28;20034;-59
2023/03/24 03:27:30;;;;;;;9.07;6.38;;;8.10;85.60;;;;;;4985732;28;20043;-59
2023/03/24 03:30:05;;;;;;;25.13;7.28;;;8.20;86.00;;;;;;4989948;28;20121;-60
2023/03/24 03:32:33;;;;;;;10.02;6.03;;;8.20;84.20;;;;;;4985655;28;20023;-59
2023/03/24 03:35:08;;;;;;;13.32;8.07;;;8.10;81.00;;;;;;4992015;28;20026;-60
2023/03/24 03:37:44;;;;;;;11.63;6.20;;;8.10;79.80;;;;;;4987542;28;20027;-59
2023/03/24 03:40:24;;;;;;;8.20;5.45;;;8.10;82.20;;;;;;4975117;28;20077;-60
2023/03/24 03:42:50;;;;;;;11.40;6.72;;;8.10;80.50;;;;;;4988248;28;20019;-60
2023/03/24 03:45:16;;;;;;;16.55;6.18;;;8.00;82.20;;;;;;4976217;28;20421;-59
2023/03/24 03:47:42;;;;;;;8.68;6.10;;;8.00;82.20;;;;;;4986088;28;20022;-59
2023/03/24 03:50:08;;;;;;;9.57;6.85;;;8.00;79.40;;;;;;4982697;28;20493;-58
2023/03/24 03:52:37;;;;;;;9.55;5.82;;;7.90;81.90;;;;;;4990313;28;20474;-59
2023/03/24 03:55:04;;;;;;;15.80;6.03;;;7.90;82.70;;;;;;4975372;28;20019;-60
2023/03/24 03:57:31;;;;;;;6.47;5.88;;;7.90;82.80;;;;;;4981502;28;20495;-60
2023/03/24 04:00:06;;;;;;;7.70;6.05;;;7.90;84.20;;;;;;4984456;28;20026;-59
2023/03/24 04:03:04;;;;;;;6.68;5.40;;;7.90;84.30;;;;;;4988425;28;20045;-59
2023/03/24 04:05:35;;;;;;;6.38;5.78;;;7.80;82.60;;;;;;4987039;28;20018;-59
2023/03/24 04:08:13;;;;;;;10.60;6.50;;;7.80;83.50;;;;;;4982880;28;20114;-59
2023/03/24 04:11:04;;;;;;;7.00;6.13;;;7.70;82.20;;;;;;4990115;28;20030;-60
2023/03/24 04:14:06;;;;;;;9.93;6.75;;;7.70;85.10;;;;;;4974234;28;20042;-59
2023/03/24 04:17:14;;;;;;;14.25;6.78;;;7.70;88.70;;;;;;4991249;28;20011;-60
2023/03/24 04:19:59;;;;;;;22.20;8.18;;;7.70;85.90;;;;;;4986064;28;20033;-60
2023/03/24 04:23:04;;;;;;;12.90;7.43;;;7.70;88.80;;;;;;4985077;28;20018;-59
2023/03/24 04:25:57;;;;;;;8.13;6.60;;;7.80;85.60;;;;;;4957183;28;20031;-59
2023/03/24 04:28:32;;;;;;;10.55;6.07;;;7.80;87.10;;;;;;4981046;28;20484;-59
2023/03/24 04:31:15;;;;;;;8.95;6.68;;;7.90;84.30;;;;;;4991372;28;20038;-60
2023/03/24 04:34:04;;;;;;;9.60;7.07;;;7.80;86.40;;;;;;4985288;28;20101;-59
2023/03/24 04:36:41;;;;;;;8.95;6.68;;;7.80;85.30;;;;;;4976737;28;20031;-60
2023/03/24 04:39:11;;;;;;;14.73;7.80;;;7.80;87.90;;;;;;4985703;28;20022;-60
2023/03/24 04:41:38;;;;;;;13.75;6.50;;;7.70;88.00;;;;;;4991850;28;20039;-60
2023/03/24 04:44:04;;;;;;;7.20;6.50;;;7.80;89.60;;;;;;4979947;28;20037;-59
2023/03/24 04:46:31;;;;;;;13.93;6.68;;;7.70;88.10;;;;;;4981848;28;20022;-60
2023/03/24 04:48:57;;;;;;;12.85;6.63;;;7.70;87.70;;;;;;4977483;28;20031;-60
2023/03/24 04:51:24;;;;;;;20.30;7.47;;;7.70;90.20;;;;;;4988066;28;20027;-59
2023/03/24 04:53:49;;;;;;;17.20;7.03;;;7.80;90.00;;;;;;4973723;28;20394;-59
2023/03/24 04:56:41;;;;;;;12.93;7.88;;;7.80;90.00;;;;;;4974598;28;20022;-59
2023/03/24 04:59:07;;;;;;;11.63;6.82;;;7.80;89.10;;;;;;4970608;28;20390;-60
2023/03/24 05:01:36;;;;;;;8.20;6.88;;;7.80;89.80;;;;;;4988030;28;20645;-60
2023/03/24 05:04:03;;;;;;;8.85;7.70;;;7.90;90.40;;;;;;4975321;28;20038;-60
2023/03/24 05:06:29;;;;;;;15.80;7.15;;;7.90;88.00;;;;;;4986485;28;20026;-60
2023/03/24 05:08:57;;;;;;;26.40;7.13;;;7.90;88.60;;;;;;4979202;28;20093;-59
2023/03/24 05:11:26;;;;;;;10.23;7.50;;;7.90;90.20;;;;;;4991999;28;20022;-59
2023/03/24 05:13:53;;;;;;;9.77;7.47;;;8.00;89.80;;;;;;4984289;28;20066;-59
2023/03/24 05:16:19;;;;;;;8.25;7.10;;;8.00;89.40;;;;;;4982337;28;20502;-59
2023/03/24 05:18:45;;;;;;;15.93;8.02;;;8.10;89.20;;;;;;4973433;28;20551;-60
2023/03/24 05:21:11;;;;;;;13.35;6.72;;;8.10;86.80;;;;;;4991113;28;20118;-59
2023/03/24 05:23:37;;;;;;;13.40;7.07;;;8.10;88.20;;;;;;4986140;28;20104;-60
2023/03/24 05:26:04;;;;;;;13.15;6.85;;;8.10;87.70;;;;;;4990440;28;20478;-60
2023/03/24 05:28:30;;;;;;;14.00;7.15;;;8.20;87.20;;;;;;4985771;28;20075;-59
2023/03/24 05:30:55;;;;;;;16.27;6.70;;;8.20;85.90;;;;;;4984488;28;20057;-59
2023/03/24 05:33:21;;;;;;;8.05;6.50;;;8.20;86.90;;;;;;4980768;28;20094;-60
2023/03/24 05:35:47;;;;;;;12.07;6.25;;;8.30;85.50;;;;;;4980916;28;20026;-60
2023/03/24 05:38:13;;;;;;;10.38;6.45;;;8.30;84.70;;;;;;4986722;28;20389;-60
2023/03/24 05:40:38;;;;;;;14.57;6.10;;;8.40;81.70;;;;;;4977016;28;20027;-59
2023/03/24 05:43:06;;;;;;;9.40;6.60;;;8.40;82.30;;;;;;4988546;28;20034;-59
2023/03/24 05:45:32;;;;;;;14.57;6.82;;;8.30;81.70;;;;;;4982518;28;20370;-59
2023/03/24 05:47:58;;;;;;;8.88;6.30;;;8.40;81.10;;;;;;4988361;28;20028;-59
2023/03/24 05:50:24;;;;;;;11.52;6.55;;;8.40;81.80;;;;;;4981995;28;20034;-60
2023/03/24 05:52:51;;;;;;;10.65;6.57;;;8.40;78.60;;;;;;4980040;28;20038;-59
2023/03/24 05:55:18;;;;;;;11.57;6.18;;;8.40;79.60;;;;;;4972697;28;20754;-59
2023/03/24 05:57:50;;;;;;;13.32;6.85;;;8.40;81.20;;;;;;4976691;28;20022;-59
2023/03/24 06:00:16;;;;;;;7.38;6.43;;;8.50;81.70;;;;;;4981185;28;20476;-59
2023/03/24 06:02:46;;;;;;;16.00;6.63;;;8.60;80.20;;;;;;4988508;28;20034;-60
2023/03/24 06:05:12;;;;;;;11.70;6.70;;;8.60;80.90;;;;;;4991041;28;20031;-60
2023/03/24 06:07:41;;;;;;;73.05;43.63;;;8.60;80.30;;;;;;4983999;28;20481;-59
2023/03/24 06:10:09;;;;;;;24.52;16.23;;;8.70;80.80;;;;;;4986313;28;20037;-59
2023/03/24 06:12:34;;;;;;;13.98;9.20;;;8.70;77.60;;;;;;4990800;28;20015;-59
2023/03/24 06:15:00;;;;;;;17.55;9.00;;;8.80;78.90;;;;;;4983557;28;20038;-60
2023/03/24 06:17:29;;;;;;;76.05;35.38;;;8.80;78.30;;;;;;4971493;28;20031;-59
2023/03/24 06:20:01;;;;;;;81.65;38.10;;;9.00;80.10;;;;;;4974220;28;20046;-60
2023/03/24 06:22:28;;;;;;;41.88;24.92;;;9.10;79.50;;;;;;4987056;28;20031;-60
2023/03/24 06:24:55;;;;;;;23.63;12.13;;;9.30;75.20;;;;;;4986637;28;20421;-60
2023/03/24 06:27:25;;;;;;;19.02;8.00;;;9.50;73.20;;;;;;4981845;28;20563;-59
2023/03/24 06:29:52;;;;;;;29.35;15.95;;;9.70;73.00;;;;;;4976431;28;20019;-60
2023/03/24 06:32:18;;;;;;;85.43;37.67;;;9.90;72.60;;;;;;4979084;28;20103;-60
2023/03/24 06:34:44;;;;;;;59.47;24.70;;;10.20;66.30;;;;;;4991798;28;20462;-60
2023/03/24 06:37:10;;;;;;;32.53;15.13;;;10.40;54.10;;;;;;4983383;28;20066;-60
2023/03/24 06:39:36;;;;;;;16.98;9.27;;;10.50;45.70;;;;;;4979912;28;20649;-59
2023/03/24 06:42:02;;;;;;;13.13;7.90;;;10.60;42.60;;;;;;4979103;28;20027;-59
2023/03/24 06:44:28;;;;;;;16.45;6.95;;;10.60;41.40;;;;;;4978514;28;20037;-59
2023/03/24 06:46:53;;;;;;;15.00;6.65;;;10.60;36.50;;;;;;4980231;28;20026;-59
2023/03/24 06:49:19;;;;;;;8.77;6.93;;;10.50;35.80;;;;;;4980760;28;20023;-59
2023/03/24 06:51:45;;;;;;;26.65;8.35;;;10.40;37.90;;;;;;4982345;28;20038;-60
2023/03/24 06:54:11;;;;;;;14.40;6.78;;;10.40;30.90;;;;;;4973340;28;20034;-60
2023/03/24 06:56:37;;;;;;;14.63;7.68;;;10.60;29.90;;;;;;4987213;28;20026;-60
2023/03/24 06:59:03;;;;;;;14.07;7.15;;;10.80;23.50;;;;;;4977411;28;20034;-72
2023/03/24 07:01:29;;;;;;;17.38;7.90;;;11.00;19.00;;;;;;4985915;28;20030;-60
2023/03/24 07:03:55;;;;;;;13.27;7.68;;;11.10;9.40;;;;;;4990079;28;20026;-58
2023/03/24 07:06:21;;;;;;;17.60;7.88;;;11.20;6.00;;;;;;4983617;28;20405;-59
2023/03/24 07:08:48;;;;;;;13.05;7.70;;;11.30;4.30;;;;;;4975870;28;20030;-60
2023/03/24 07:11:14;;;;;;;10.50;7.13;;;11.50;1.00;;;;;;4985460;28;20033;-59
2023/03/24 07:13:40;;;;;;;12.48;6.88;;;11.50;1.00;;;;;;4986752;28;20034;-59
2023/03/24 07:16:06;;;;;;;10.05;6.68;;;11.50;1.00;;;;;;4975636;28;20115;-60
2023/03/24 07:18:32;;;;;;;11.18;7.00;;;11.60;1.00;;;;;;4986993;28;20531;-60
2023/03/24 07:20:58;;;;;;;16.48;7.82;;;11.70;1.00;;;;;;4994799;28;20101;-60
2023/03/24 07:23:26;;;;;;;11.15;7.20;;;11.70;1.00;;;;;;4994931;28;20088;-60
2023/03/24 07:25:52;;;;;;;14.70;8.02;;;11.80;1.00;;;;;;4990851;28;20019;-59
2023/03/24 07:28:17;;;;;;;17.60;7.63;;;12.10;1.00;;;;;;4975356;28;20186;-59
2023/03/24 07:30:43;;;;;;;9.90;7.03;;;12.10;1.00;;;;;;4975806;28;20031;-60
2023/03/24 07:33:11;;;;;;;13.20;7.25;;;12.30;1.00;;;;;;4977295;28;20027;-59
2023/03/24 07:35:37;;;;;;;14.48;6.35;;;12.30;1.00;;;;;;4975009;28;20030;-59
2023/03/24 07:38:03;;;;;;;7.57;5.90;;;12.40;1.00;;;;;;4974872;28;20027;-59
2023/03/24 07:40:29;;;;;;;12.40;6.47;;;12.60;1.00;;;;;;4975122;28;20139;-58
2023/03/24 07:42:58;;;;;;;16.40;7.57;;;13.00;1.00;;;;;;4973898;28;20030;-59
2023/03/24 07:45:24;;;;;;;8.80;6.57;;;13.30;1.00;;;;;;4975018;28;20027;-59
2023/03/24 07:47:50;;;;;;;7.70;5.97;;;13.60;1.00;;;;;;4974999;28;20064;-59
2023/03/24 07:50:16;;;;;;;8.63;5.93;;;13.70;1.00;;;;;;4974526;28;20109;-60
2023/03/24 07:52:46;;;;;;;12.50;5.15;;;14.00;1.00;;;;;;4974875;28;20113;-60
2023/03/24 07:55:12;;;;;;;6.15;5.07;;;14.30;99.90;;;;;;4974993;28;20031;-59
2023/03/24 07:57:41;;;;;;;11.75;5.35;;;14.30;1.00;;;;;;4974997;28;20030;-60
2023/03/24 08:00:16;;;;;;;9.55;4.68;;;14.40;1.00;;;;;;4974830;28;20019;-60
2023/03/24 08:02:44;;;;;;;8.63;4.57;;;14.40;99.90;;;;;;4974491;28;20051;-60
2023/03/24 08:05:13;;;;;;;9.50;4.85;;;14.60;47.90;;;;;;4974781;28;20033;-59
2023/03/24 08:07:41;;;;;;;9.38;5.13;;;14.70;99.90;;;;;;4974609;28;20023;-60
2023/03/24 08:10:08;;;;;;;7.80;4.57;;;15.10;1.00;;;;;;4973221;28;20069;-59
2023/03/24 08:12:34;;;;;;;11.38;4.72;;;15.20;22.90;;;;;;4974515;28;20027;-59
2023/03/24 08:15:00;;;;;;;12.43;4.07;;;15.20;1.00;;;;;;4974176;28;20038;-59
2023/03/24 08:17:26;;;;;;;10.20;4.15;;;15.10;1.00;;;;;;4973616;28;20035;-59
2023/03/24 08:19:51;;;;;;;10.18;4.47;;;15.20;1.00;;;;;;4972831;28;20492;-59
2023/03/24 08:22:17;;;;;;;6.05;4.55;;;15.30;99.90;;;;;;4974472;28;20252;-59
2023/03/24 08:24:43;;;;;;;5.40;3.90;;;15.60;15.00;;;;;;4974239;28;20019;-59
2023/03/24 08:27:09;;;;;;;5.40;4.03;;;16.00;99.90;;;;;;4974236;28;20055;-59
2023/03/24 08:29:35;;;;;;;6.30;4.75;;;16.20;1.00;;;;;;4973009;28;20039;-59
2023/03/24 08:32:00;;;;;;;8.25;4.03;;;16.30;99.90;;;;;;4974034;28;20382;-60
2023/03/24 08:34:27;;;;;;;8.80;4.10;;;16.80;12.40;;;;;;4974010;28;20031;-60
2023/03/24 08:36:52;;;;;;;13.32;4.22;;;17.20;99.90;;;;;;4973879;28;20541;-60
2023/03/24 08:39:19;;;;;;;8.30;4.78;;;17.40;1.00;;;;;;4974181;28;20023;-60
2023/03/24 08:41:45;;;;;;;9.40;4.43;;;17.30;36.70;;;;;;4973720;28;20022;-60
2023/03/24 08:44:11;;;;;;;4.90;3.90;;;17.10;99.90;;;;;;4973988;28;20031;-60
2023/03/24 08:46:37;;;;;;;10.18;4.35;;;17.30;99.90;;;;;;4973926;28;20027;-60
2023/03/24 08:49:05;;;;;;;9.60;3.85;;;17.40;99.90;;;;;;4973622;28;20026;-59
2023/03/24 08:51:31;;;;;;;6.22;4.50;;;17.90;7.90;;;;;;4973888;28;20549;-59
2023/03/24 08:53:56;;;;;;;4.47;3.83;;;18.00;81.60;;;;;;4973654;28;20434;-60
2023/03/24 08:56:23;;;;;;;8.68;4.35;;;18.20;99.90;;;;;;4973891;28;20023;-60
2023/03/24 08:58:50;;;;;;;6.80;4.30;;;18.30;99.90;;;;;;4973354;28;20027;-60
2023/03/24 09:01:17;;;;;;;7.18;4.82;;;18.00;99.90;;;;;;4972272;28;20096;-60
2023/03/24 09:03:43;;;;;;;9.13;4.70;;;18.00;99.90;;;;;;4973579;28;20025;-59
2023/03/24 09:06:09;;;;;;;13.77;4.82;;;18.10;99.90;;;;;;4973615;28;20031;-60
2023/03/24 09:08:35;;;;;;;5.55;4.13;;;18.30;99.90;;;;;;4973614;28;20085;-60
2023/03/24 09:11:01;;;;;;;7.30;4.35;;;18.70;99.90;;;;;;4973078;28;20466;-59
2023/03/24 09:13:26;;;;;;;9.05;5.07;;;18.90;99.90;;;;;;4973343;28;20035;-60
2023/03/24 09:15:58;;;;;;;7.55;4.45;;;18.60;1.00;;;;;;4973337;28;20054;-60
2023/03/24 09:18:24;;;;;;;11.13;5.03;;;18.50;1.00;;;;;;4973393;28;20042;-60
2023/03/24 09:20:51;;;;;;;7.95;5.22;;;18.50;99.90;;;;;;4973240;28;20042;-59
2023/03/24 09:23:17;;;;;;;14.63;5.32;;;18.40;99.90;;;;;;4973359;28;20618;-60
2023/03/24 09:25:44;;;;;;;8.10;4.80;;;18.60;99.90;;;;;;4973184;28;20430;-60
2023/03/24 09:28:10;;;;;;;6.00;4.80;;;19.20;99.90;;;;;;4971654;28;20077;-60
2023/03/24 09:30:35;;;;;;;5.45;4.43;;;19.40;1.00;;;;;;4972679;28;20027;-60
2023/03/24 09:33:01;;;;;;;6.40;4.05;;;19.50;1.00;;;;;;4972932;28;20122;-59
2023/03/24 09:35:27;;;;;;;9.73;4.68;;;19.50;1.40;;;;;;4972963;28;20030;-60
2023/03/24 09:37:54;;;;;;;12.70;5.30;;;19.30;1.00;;;;;;4972792;28;20085;-60
2023/03/24 09:40:28;;;;;;;15.18;5.32;;;19.20;1.00;;;;;;4972973;28;20039;-60
2023/03/24 09:43:10;;;;;;;6.47;5.03;;;18.90;1.00;;;;;;4972916;28;20026;-60
2023/03/24 09:45:39;;;;;;;10.15;5.50;;;18.90;1.00;;;;;;4972960;28;20749;-60
2023/03/24 09:48:12;;;;;;;5.82;4.82;;;19.10;1.00;;;;;;4972530;28;20544;-60
2023/03/24 09:50:47;;;;;;;12.35;5.78;;;19.10;1.00;;;;;;4972699;28;20036;-59
2023/03/24 09:53:27;;;;;;;11.90;5.40;;;19.00;1.00;;;;;;4972522;28;20027;-60
2023/03/24 09:55:53;;;;;;;8.68;5.35;;;18.70;1.00;;;;;;4972325;28;20417;-60
2023/03/24 09:58:19;;;;;;;11.55;5.28;;;18.80;1.00;;;;;;4972289;28;20022;-60
2023/03/24 10:00:45;;;;;;;7.50;4.78;;;19.10;1.00;;;;;;4971710;28;20077;-60
2023/03/24 10:03:22;;;;;;;10.55;6.20;;;19.30;1.00;;;;;;4971424;28;20031;-60
2023/03/24 10:06:24;;;;;;;6.38;4.45;;;19.40;1.00;;;;;;4972014;28;20073;-60
2023/03/24 10:09:09;;;;;;;7.82;5.25;;;19.90;1.00;;;;;;4968448;28;20085;-60
2023/03/24 10:11:50;;;;;;;11.75;5.47;;;20.40;1.00;;;;;;4972697;28;20123;-60
2023/03/24 10:14:18;;;;;;;12.13;4.47;;;20.40;1.00;;;;;;4971316;28;20058;-60
2023/03/24 10:16:48;;;;;;;5.13;3.35;;;20.30;1.00;;;;;;4971138;28;20501;-60
2023/03/24 10:19:55;;;;;;;4.85;3.67;;;19.80;10.90;;;;;;4972109;28;20034;-60
2023/03/24 10:22:43;;;;;;;6.68;3.55;;;20.10;99.90;;;;;;4974831;28;20022;-60
2023/03/24 10:25:22;;;;;;;6.93;4.28;;;19.90;96.30;;;;;;4979378;28;20050;-60
2023/03/24 10:28:20;;;;;;;7.88;4.00;;;20.00;99.90;;;;;;4989616;28;20185;-60
2023/03/24 10:30:48;;;;;;;4.55;3.33;;;19.70;99.90;;;;;;4988748;28;20433;-60
2023/03/24 10:33:14;;;;;;;7.43;4.00;;;19.30;1.00;;;;;;4980202;28;20026;-60
2023/03/24 10:36:04;;;;;;;7.55;3.92;;;19.00;99.50;;;;;;4984794;28;20110;-59
2023/03/24 10:38:30;;;;;;;4.60;3.97;;;18.60;99.90;;;;;;4975950;28;20022;-60
2023/03/24 10:40:57;;;;;;;5.05;3.25;;;18.50;1.00;;;;;;4984164;28;20398;-60
2023/03/24 10:43:26;;;;;;;8.93;4.00;;;18.20;99.90;;;;;;4982370;28;20026;-60
2023/03/24 10:45:54;;;;;;;4.13;3.08;;;17.90;99.90;;;;;;4987904;28;20030;-59
2023/03/24 10:48:43;;;;;;;14.45;7.57;;;17.60;99.90;;;;;;4982040;28;20026;-58
2023/03/24 10:51:18;;;;;;;5.03;4.50;;;17.40;1.00;;;;;;4978878;28;20035;-59
2023/03/24 10:53:47;;;;;;;4.85;3.95;;;17.30;1.00;;;;;;4995091;28;20058;-59
2023/03/24 10:56:40;;;;;;;6.93;3.67;;;17.30;99.30;;;;;;4995604;28;20030;-59
2023/03/24 10:59:27;;;;;;;9.40;4.53;;;17.10;99.90;;;;;;4989976;28;20038;-59
2023/03/24 11:02:22;;;;;;;5.28;4.40;;;17.30;99.90;;;;;;4975198;28;20038;-59
2023/03/24 11:05:04;;;;;;;10.60;3.85;;;17.30;99.90;;;;;;4974628;28;20031;-59
2023/03/24 11:07:39;;;;;;;5.28;3.95;;;17.30;99.90;;;;;;4974525;28;20037;-59
2023/03/24 11:10:08;;;;;;;7.80;4.43;;;17.30;99.90;;;;;;4975580;28;20031;-59
2023/03/24 11:12:37;;;;;;;4.85;3.58;;;17.30;1.00;;;;;;4975487;28;20366;-60
2023/03/24 11:15:19;;;;;;;6.10;4.20;;;17.30;99.90;;;;;;4975446;28;20023;-59
2023/03/24 11:17:47;;;;;;;9.15;4.18;;;17.20;99.90;;;;;;4974092;28;20457;-59
2023/03/24 11:20:20;;;;;;;8.60;4.57;;;17.10;1.00;;;;;;4975432;28;20065;-60
2023/03/24 11:23:09;;;;;;;7.38;3.95;;;17.00;1.00;;;;;;4975126;28;20023;-59
2023/03/24 11:25:37;;;;;;;8.07;4.13;;;16.70;1.00;;;;;;4975459;28;20023;-59
2023/03/24 11:28:13;;;;;;;10.02;4.60;;;16.60;99.90;;;;;;4974976;28;20058;-58
2023/03/24 11:30:48;;;;;;;6.68;5.22;;;16.40;99.90;;;;;;4975078;28;20035;-59
2023/03/24 11:33:40;;;;;;;4.93;4.35;;;16.40;50.10;;;;;;4975397;28;20442;-59
2023/03/24 11:36:29;;;;;;;8.13;4.22;;;16.50;99.90;;;;;;4974947;28;20094;-60
2023/03/24 11:39:09;;;;;;;7.55;4.72;;;16.50;1.00;;;;;;4985567;28;20046;-59
2023/03/24 11:41:39;;;;;;;6.90;4.35;;;16.60;99.90;;;;;;4976631;28;20094;-59
2023/03/24 11:44:37;;;;;;;6.88;4.65;;;16.60;99.90;;;;;;4965735;28;20042;-59
2023/03/24 11:47:37;;;;;;;7.80;4.72;;;16.50;1.00;;;;;;4961233;28;20047;-59
2023/03/24 11:50:08;;;;;;;8.95;5.40;;;16.70;1.00;;;;;;4963548;28;20086;-60
2023/03/24 11:52:55;;;;;;;5.80;4.22;;;16.50;1.00;;;;;;4964011;28;20126;-59
2023/03/24 11:56:10;;;;;;;6.63;4.55;;;16.30;99.90;;;;;;4964760;28;20027;-60
2023/03/24 11:58:48;;;;;;;7.93;3.80;;;16.20;99.90;;;;;;4951252;28;20039;-59
2023/03/24 12:01:32;;;;;;;7.70;3.53;;;16.00;99.90;;;;;;4965374;28;20041;-59
2023/03/24 12:03:58;;;;;;;4.80;3.75;;;16.00;99.90;;;;;;4964557;28;20130;-59
2023/03/24 12:06:39;;;;;;;7.43;3.88;;;15.90;99.90;;;;;;4963705;28;20121;-59
2023/03/24 12:09:14;;;;;;;20.00;3.67;;;15.80;1.00;;;;;;4963815;28;20394;-60
2023/03/24 12:11:48;;;;;;;4.55;4.00;;;15.70;99.90;;;;;;4964018;28;20038;-60
2023/03/24 12:14:25;;;;;;;4.43;3.80;;;15.60;99.90;;;;;;4963704;28;20039;-60
2023/03/24 12:17:12;;;;;;;4.20;3.80;;;15.40;1.00;;;;;;4963218;28;20039;-59
2023/03/24 12:19:58;;;;;;;6.25;3.50;;;15.30;1.00;;;;;;4964272;28;20026;-59
2023/03/24 12:22:54;;;;;;;4.30;3.25;;;15.30;99.90;;;;;;4963175;28;20031;-59
2023/03/24 12:25:29;;;;;;;7.43;4.43;;;15.60;6.50;;;;;;4964111;28;20080;-60
2023/03/24 12:28:01;;;;;;;6.97;3.83;;;15.70;1.00;;;;;;4963453;28;20077;-59
2023/03/24 12:31:04;;;;;;;5.07;3.88;;;15.60;1.00;;;;;;4963046;28;20039;-59
2023/03/24 12:33:36;;;;;;;5.25;3.50;;;15.70;99.90;;;;;;4963824;28;20114;-59
2023/03/24 12:36:11;;;;;;;4.45;3.50;;;15.40;99.90;;;;;;4963422;28;20053;-60
2023/03/24 12:39:00;;;;;;;4.45;3.97;;;15.30;99.90;;;;;;4964033;28;20031;-59
2023/03/24 12:41:58;;;;;;;7.40;5.10;;;14.90;1.00;;;;;;4963577;28;20045;-59
2023/03/24 12:44:45;;;;;;;5.43;4.75;;;14.80;1.00;;;;;;4961321;28;20482;-59
2023/03/24 12:47:45;;;;;;;5.50;5.00;;;14.70;1.00;;;;;;4964084;28;20108;-59
2023/03/24 12:50:22;;;;;;;9.90;5.40;;;14.60;1.00;;;;;;4963829;28;20521;-59
2023/03/24 12:53:21;;;;;;;9.38;5.20;;;14.40;4.20;;;;;;4963138;28;20039;-59
2023/03/24 12:55:52;;;;;;;15.50;5.90;;;14.30;4.90;;;;;;4972805;28;20038;-59
2023/03/24 12:58:42;;;;;;;8.65;5.78;;;14.10;24.00;;;;;;4982703;28;20109;-59
2023/03/24 13:01:38;;;;;;;7.13;5.53;;;14.10;18.80;;;;;;4981375;28;20026;-59
2023/03/24 13:04:14;;;;;;;9.30;5.20;;;14.20;19.60;;;;;;4979115;28;20647;-59
2023/03/24 13:06:48;;;;;;;10.18;5.47;;;14.20;21.80;;;;;;4981744;28;20045;-59
2023/03/24 13:09:54;;;;;;;15.63;5.10;;;14.10;35.60;;;;;;4962436;28;20034;-59
2023/03/24 13:12:45;;;;;;;5.28;4.55;;;14.10;21.90;;;;;;4981824;28;20379;-59
2023/03/24 13:15:11;;;;;;;6.70;4.57;;;13.90;27.60;;;;;;4970121;28;20106;-59
2023/03/24 13:18:08;;;;;;;5.20;4.75;;;13.90;29.90;;;;;;4970387;28;20031;-59